createdAt,value
2018-04-24T00:02:24.516Z,12.17
2018-04-24T00:04:57.803Z,11.73
2018-04-24T00:07:31.373Z,12.47
2018-04-24T00:10:04.996Z,11.27
2018-04-24T00:12:38.347Z,12.90
2018-04-24T00:15:12.321Z,12.53
2018-04-24T00:17:45.666Z,12.93
2018-04-24T00:20:19.361Z,12.40
2018-04-24T00:22:52.781Z,11.50
2018-04-24T00:25:27.206Z,12.30
2018-04-24T00:28:00.644Z,11.90
2018-04-24T00:32:57.421Z,11.73
2018-04-24T00:35:30.909Z,12.40
2018-04-24T00:38:04.485Z,12.10
2018-04-24T00:40:39.791Z,11.43
2018-04-24T00:43:13.310Z,12.03
2018-04-24T00:45:46.675Z,11.87
2018-04-24T00:48:20.526Z,11.23
2018-04-24T00:50:57.459Z,10.70
2018-04-24T00:53:40.387Z,10.97
2018-04-24T00:56:13.909Z,10.63
2018-04-24T00:58:47.383Z,10.80
2018-04-24T01:01:20.824Z,9.97
2018-04-24T01:03:55.049Z,10.60
2018-04-24T01:06:28.718Z,10.40
2018-04-24T01:09:05.137Z,11.20
2018-04-24T01:11:42.969Z,12.07
2018-04-24T01:14:17.019Z,11.03
2018-04-24T01:16:50.570Z,10.70
2018-04-24T01:19:24.080Z,10.90
2018-04-24T01:21:57.561Z,11.50
2018-04-24T01:24:31.167Z,12.63
2018-04-24T01:27:04.597Z,10.10
2018-04-24T01:29:39.520Z,12.17
2018-04-24T01:32:12.964Z,11.23
2018-04-24T01:34:46.279Z,11.03
2018-04-24T01:37:20.253Z,11.23
2018-04-24T01:39:54.244Z,12.13
2018-04-24T01:42:29.050Z,11.33
2018-04-24T01:45:02.616Z,11.47
2018-04-24T01:47:35.994Z,11.33
2018-04-24T01:50:09.325Z,11.27
2018-04-24T01:52:43.138Z,10.33
2018-04-24T01:55:16.517Z,10.40
2018-04-24T01:57:49.760Z,10.53
2018-04-24T02:00:23.586Z,11.10
2018-04-24T02:02:56.976Z,10.57
2018-04-24T02:05:30.281Z,10.77
2018-04-24T02:08:03.798Z,10.63
2018-04-24T02:10:37.117Z,10.13
2018-04-24T02:13:10.440Z,10.80
2018-04-24T02:15:44.411Z,11.20
2018-04-24T02:18:18.004Z,10.17
2018-04-24T02:20:51.381Z,10.57
2018-04-24T02:23:25.005Z,11.73
2018-04-24T02:25:58.443Z,11.57
2018-04-24T02:28:31.768Z,12.27
2018-04-24T02:31:05.404Z,11.30
2018-04-24T02:33:39.129Z,10.77
2018-04-24T02:36:12.910Z,10.57
2018-04-24T02:38:46.365Z,10.80
2018-04-24T02:41:20.083Z,10.73
2018-04-24T02:43:53.794Z,10.77
2018-04-24T02:46:27.480Z,9.60
2018-04-24T02:49:00.857Z,10.77
2018-04-24T02:51:34.563Z,11.00
2018-04-24T02:54:08.218Z,10.73
2018-04-24T02:56:41.839Z,10.13
2018-04-24T02:59:15.983Z,10.43
2018-04-24T03:01:50.061Z,10.77
2018-04-24T03:04:23.442Z,10.43
2018-04-24T03:06:57.377Z,10.90
2018-04-24T03:09:31.216Z,9.97
2018-04-24T03:12:05.298Z,10.27
2018-04-24T03:14:38.624Z,10.20
2018-04-24T03:17:12.181Z,11.73
2018-04-24T03:19:45.623Z,12.17
2018-04-24T03:22:19.121Z,12.87
2018-04-24T03:24:52.659Z,12.40
2018-04-24T03:27:26.071Z,11.10
2018-04-24T03:30:00.609Z,10.43
2018-04-24T03:32:34.462Z,11.30
2018-04-24T03:35:07.856Z,11.37
2018-04-24T03:37:41.933Z,10.47
2018-04-24T03:40:15.684Z,11.03
2018-04-24T03:42:52.265Z,11.10
2018-04-24T03:45:28.648Z,11.53
2018-04-24T03:48:02.720Z,11.97
2018-04-24T03:50:36.446Z,10.77
2018-04-24T03:53:09.689Z,11.77
2018-04-24T03:55:43.320Z,11.50
2018-04-24T03:58:17.026Z,11.33
2018-04-24T04:00:50.757Z,11.30
2018-04-24T04:03:24.185Z,11.00
2018-04-24T04:05:58.077Z,11.77
2018-04-24T04:08:31.666Z,12.63
2018-04-24T04:11:05.549Z,11.20
2018-04-24T04:13:39.297Z,11.50
2018-04-24T04:16:12.977Z,11.20
2018-04-24T04:18:57.069Z,11.27
2018-04-24T04:21:41.512Z,14.00
2018-04-24T04:24:28.141Z,13.70
2018-04-24T04:27:02.526Z,13.07
2018-04-24T04:29:37.108Z,12.17
2018-04-24T04:32:12.480Z,11.83
2018-04-24T04:34:45.874Z,11.47
2018-04-24T04:37:20.257Z,10.90
2018-04-24T04:39:53.660Z,10.93
2018-04-24T04:42:27.236Z,12.63
2018-04-24T04:45:01.206Z,11.40
2018-04-24T04:47:34.667Z,10.97
2018-04-24T04:50:08.153Z,11.93
2018-04-24T04:52:43.455Z,11.67
2018-04-24T04:57:38.374Z,10.43
2018-04-24T05:00:15.090Z,9.90
2018-04-24T05:02:49.201Z,13.40
2018-04-24T05:05:25.372Z,12.57
2018-04-24T05:08:00.055Z,12.20
2018-04-24T05:10:33.619Z,11.67
2018-04-24T05:13:09.402Z,10.93
2018-04-24T05:15:42.874Z,13.17
2018-04-24T05:18:16.915Z,14.20
2018-04-24T05:20:51.339Z,12.73
2018-04-24T05:23:24.985Z,14.17
2018-04-24T05:25:58.575Z,13.70
2018-04-24T05:28:32.589Z,14.63
2018-04-24T05:31:09.015Z,15.00
2018-04-24T05:33:42.591Z,15.20
2018-04-24T05:36:16.384Z,15.70
2018-04-24T05:38:50.778Z,13.57
2018-04-24T05:41:24.813Z,14.37
2018-04-24T05:43:58.178Z,13.67
2018-04-24T05:46:32.056Z,14.80
2018-04-24T05:49:06.485Z,15.47
2018-04-24T05:51:41.166Z,14.83
2018-04-24T05:54:15.074Z,14.53
2018-04-24T05:56:49.099Z,14.60
2018-04-24T05:59:22.688Z,15.43
2018-04-24T06:01:56.607Z,14.57
2018-04-24T06:04:30.480Z,14.37
2018-04-24T06:07:04.992Z,13.50
2018-04-24T06:09:38.675Z,14.43
2018-04-24T06:12:12.443Z,14.60
2018-04-24T06:14:45.848Z,13.83
2018-04-24T06:17:19.443Z,13.93
2018-04-24T06:19:53.479Z,14.40
2018-04-24T06:22:26.903Z,14.97
2018-04-24T06:25:02.273Z,15.20
2018-04-24T06:27:36.277Z,13.60
2018-04-24T06:30:11.182Z,13.50
2018-04-24T06:32:44.645Z,13.00
2018-04-24T06:35:18.736Z,12.10
2018-04-24T06:37:52.100Z,12.93
2018-04-24T06:40:26.593Z,13.57
2018-04-24T06:43:02.995Z,13.00
2018-04-24T06:45:37.098Z,11.90
2018-04-24T06:48:11.617Z,11.07
2018-04-24T06:50:45.215Z,12.07
2018-04-24T06:53:18.818Z,10.93
2018-04-24T06:55:52.940Z,11.30
2018-04-24T06:58:26.455Z,9.27
2018-04-24T07:01:00.786Z,9.00
2018-04-24T07:03:34.282Z,8.90
2018-04-24T07:06:07.676Z,8.70
2018-04-24T07:08:42.510Z,8.23
2018-04-24T07:11:16.480Z,9.00
2018-04-24T07:13:50.129Z,9.53
2018-04-24T07:16:24.392Z,7.13
2018-04-24T07:18:59.070Z,7.60
2018-04-24T07:21:32.555Z,7.77
2018-04-24T07:24:06.201Z,7.17
2018-04-24T07:26:40.142Z,6.93
2018-04-24T07:29:14.187Z,6.87
2018-04-24T07:31:47.717Z,6.37
2018-04-24T07:34:23.450Z,6.30
2018-04-24T07:36:56.955Z,6.23
2018-04-24T07:39:30.830Z,5.60
2018-04-24T07:42:07.341Z,6.10
2018-04-24T07:44:41.192Z,5.70
2018-04-24T07:47:15.289Z,6.30
2018-04-24T07:49:49.341Z,5.90
2018-04-24T07:52:23.196Z,5.87
2018-04-24T07:54:56.798Z,5.20
2018-04-24T07:57:30.465Z,5.13
2018-04-24T08:00:04.572Z,5.20
2018-04-24T08:02:38.643Z,4.17
2018-04-24T08:05:12.825Z,5.00
2018-04-24T08:07:46.959Z,4.33
2018-04-24T08:10:22.322Z,4.70
2018-04-24T08:13:01.953Z,4.50
2018-04-24T08:15:37.434Z,4.27
2018-04-24T08:18:14.163Z,4.30
2018-04-24T08:20:49.996Z,3.93
2018-04-24T08:23:23.944Z,4.23
2018-04-24T08:25:57.493Z,4.40
2018-04-24T08:28:31.415Z,3.63
2018-04-24T08:31:04.848Z,3.70
2018-04-24T08:33:38.375Z,4.00
2018-04-24T08:36:12.354Z,3.63
2018-04-24T08:38:46.083Z,3.50
2018-04-24T08:41:20.571Z,3.40
2018-04-24T08:45:23.927Z,3.90
2018-04-24T08:47:57.463Z,3.30
2018-04-24T08:50:31.973Z,3.53
2018-04-24T08:53:05.518Z,3.63
2018-04-24T08:55:39.285Z,3.20
2018-04-24T08:58:13.536Z,3.00
2018-04-24T09:00:47.985Z,3.07
2018-04-24T09:03:21.851Z,2.50
2018-04-24T09:05:56.020Z,2.57
2018-04-24T09:08:29.850Z,2.30
2018-04-24T09:11:06.553Z,2.20
2018-04-24T09:13:40.863Z,1.73
2018-04-24T09:16:15.455Z,1.93
2018-04-24T09:18:49.469Z,1.90
2018-04-24T09:21:23.525Z,1.90
2018-04-24T09:23:58.468Z,2.10
2018-04-24T09:26:37.444Z,1.87
2018-04-24T09:29:11.575Z,2.10
2018-04-24T09:31:45.289Z,1.97
2018-04-24T09:34:20.289Z,2.27
2018-04-24T09:37:00.896Z,2.00
2018-04-24T09:39:38.047Z,1.90
2018-04-24T09:42:20.445Z,1.83
2018-04-24T09:44:54.114Z,1.57
2018-04-24T09:47:27.952Z,2.20
2018-04-24T09:50:03.338Z,2.53
2018-04-24T09:52:37.113Z,2.00
2018-04-24T09:55:14.804Z,2.10
2018-04-24T09:57:49.120Z,2.20
2018-04-24T10:00:27.528Z,1.93
2018-04-24T10:03:06.042Z,1.90
2018-04-24T10:05:40.375Z,1.80
2018-04-24T10:08:14.307Z,1.80
2018-04-24T10:10:50.137Z,2.00
2018-04-24T10:13:24.828Z,1.87
2018-04-24T10:16:00.123Z,1.87
2018-04-24T10:18:34.216Z,1.90
2018-04-24T10:21:08.093Z,2.10
2018-04-24T10:23:49.508Z,1.90
2018-04-24T10:26:23.390Z,2.00
2018-04-24T10:28:57.038Z,2.10
2018-04-24T10:31:31.180Z,2.23
2018-04-24T10:34:07.867Z,1.67
2018-04-24T10:36:41.371Z,1.50
2018-04-24T10:39:16.954Z,1.37
2018-04-24T10:41:51.141Z,1.90
2018-04-24T10:44:26.948Z,1.70
2018-04-24T10:49:34.271Z,1.70
2018-04-24T10:52:10.281Z,1.47
2018-04-24T10:54:46.105Z,1.83
2018-04-24T10:57:20.043Z,1.63
2018-04-24T10:59:54.314Z,1.70
2018-04-24T11:02:32.761Z,1.50
2018-04-24T11:05:09.950Z,1.50
2018-04-24T11:07:51.688Z,1.40
2018-04-24T11:10:30.639Z,1.70
2018-04-24T11:13:04.836Z,1.70
2018-04-24T11:15:40.505Z,1.40
2018-04-24T11:18:15.139Z,1.67
2018-04-24T11:20:51.780Z,1.50
2018-04-24T11:26:04.140Z,1.80
2018-04-24T11:28:37.951Z,1.60
2018-04-24T11:31:23.448Z,1.50
2018-04-24T11:33:58.662Z,1.60
2018-04-24T11:36:41.311Z,1.47
2018-04-24T11:39:22.058Z,1.80
2018-04-24T11:41:58.041Z,1.47
2018-04-24T11:44:38.106Z,1.20
2018-04-24T11:47:22.007Z,1.60
2018-04-24T11:49:57.739Z,1.53
2018-04-24T11:52:31.910Z,1.50
2018-04-24T11:55:12.421Z,1.33
2018-04-24T12:04:10.073Z,1.47
2018-04-24T12:06:44.097Z,1.60
2018-04-24T12:09:21.996Z,1.30
2018-04-24T12:11:59.371Z,1.33
2018-04-24T12:14:32.791Z,1.40
2018-04-24T12:17:06.547Z,1.60
2018-04-24T12:19:40.298Z,1.20
2018-04-24T12:22:14.198Z,1.43
2018-04-24T12:24:53.805Z,1.57
2018-04-24T12:27:29.998Z,1.50
2018-04-24T12:30:07.038Z,1.47
2018-04-24T12:32:41.429Z,1.40
2018-04-24T12:35:14.952Z,1.50
2018-04-24T12:37:48.570Z,1.13
2018-04-24T12:40:22.517Z,1.40
2018-04-24T12:42:59.093Z,1.10
2018-04-24T12:45:34.150Z,1.37
2018-04-24T12:48:12.463Z,1.47
2018-04-24T12:50:47.480Z,1.30
2018-04-24T12:53:23.147Z,1.17
2018-04-24T12:55:56.526Z,1.70
2018-04-24T12:58:31.304Z,1.63
2018-04-24T13:01:05.976Z,1.37
2018-04-24T13:03:39.644Z,1.50
2018-04-24T13:06:14.499Z,1.10
2018-04-24T13:08:48.054Z,1.37
2018-04-24T13:11:22.408Z,1.10
2018-04-24T13:13:58.008Z,1.07
2018-04-24T13:16:33.371Z,1.17
2018-04-24T13:19:07.742Z,1.30
2018-04-24T13:21:41.518Z,1.10
2018-04-24T13:24:15.257Z,1.10
2018-04-24T13:26:49.732Z,1.30
2018-04-24T13:29:34.388Z,1.13
2018-04-24T13:32:11.574Z,1.13
2018-04-24T13:34:45.852Z,1.10
2018-04-24T13:37:21.113Z,1.40
2018-04-24T13:40:10.392Z,1.20
2018-04-24T13:42:49.862Z,1.10
2018-04-24T13:45:24.062Z,1.10
2018-04-24T13:47:58.981Z,1.67
2018-04-24T13:50:33.496Z,1.43
2018-04-24T13:53:11.012Z,1.47
2018-04-24T13:55:50.122Z,1.10
2018-04-24T13:58:27.964Z,1.00
2018-04-24T14:01:03.624Z,1.20
2018-04-24T14:03:42.440Z,1.10
2018-04-24T14:06:17.100Z,1.20
2018-04-24T14:08:54.085Z,1.30
2018-04-24T14:11:28.715Z,1.30
2018-04-24T14:14:03.758Z,1.30
2018-04-24T14:16:41.162Z,1.20
2018-04-24T14:19:17.922Z,1.27
2018-04-24T14:21:54.148Z,1.23
2018-04-24T14:24:31.786Z,1.00
2018-04-24T14:27:06.313Z,2.13
2018-04-24T14:29:40.281Z,1.70
2018-04-24T14:32:14.548Z,1.67
2018-04-24T14:34:48.327Z,1.53
2018-04-24T14:37:21.922Z,2.80
2018-04-24T14:39:56.003Z,1.40
2018-04-24T14:42:29.613Z,1.70
2018-04-24T14:45:03.507Z,1.30
2018-04-24T14:47:39.905Z,1.40
2018-04-24T14:50:14.283Z,1.20
2018-04-24T14:52:48.529Z,1.20
2018-04-24T14:55:22.042Z,0.90
2018-04-24T14:57:57.626Z,1.33
2018-04-24T15:00:31.318Z,1.47
2018-04-24T15:03:05.462Z,1.00
2018-04-24T15:05:42.683Z,1.60
2018-04-24T15:08:21.591Z,1.10
2018-04-24T15:10:56.195Z,1.17
2018-04-24T15:13:31.456Z,1.50
2018-04-24T15:16:07.006Z,1.20
2018-04-24T15:18:42.836Z,1.43
2018-04-24T15:21:21.835Z,2.57
2018-04-24T15:24:03.970Z,2.20
2018-04-24T15:26:40.448Z,1.50
2018-04-24T15:29:15.941Z,2.33
2018-04-24T15:31:49.870Z,1.20
2018-04-24T15:35:53.420Z,1.70
2018-04-24T15:38:27.507Z,1.60
2018-04-24T15:41:06.259Z,1.40
2018-04-24T15:43:42.065Z,1.20
2018-04-24T15:46:21.253Z,1.23
2018-04-24T15:48:54.570Z,1.23
2018-04-24T15:51:30.236Z,1.40
2018-04-24T15:54:04.643Z,1.30
2018-04-24T15:56:37.917Z,1.37
2018-04-24T15:59:11.770Z,1.30
2018-04-24T16:01:46.783Z,1.20
2018-04-24T16:04:21.715Z,1.10
2018-04-24T16:10:39.395Z,1.20
2018-04-24T16:13:27.570Z,1.50
2018-04-24T16:16:01.782Z,1.20
2018-04-24T16:18:36.992Z,1.50
2018-04-24T16:21:11.735Z,1.47
2018-04-24T16:23:49.507Z,1.60
2018-04-24T16:26:23.952Z,1.50
2018-04-24T16:28:58.905Z,1.27
2018-04-24T16:31:32.494Z,1.60
2018-04-24T16:34:10.157Z,1.33
2018-04-24T16:36:43.907Z,1.50
2018-04-24T16:39:24.557Z,1.67
2018-04-24T16:42:07.569Z,1.60
2018-04-24T16:44:46.646Z,1.67
2018-04-24T16:47:25.593Z,1.30
2018-04-24T16:50:04.173Z,1.57
2018-04-24T16:52:46.952Z,1.40
2018-04-24T16:55:21.659Z,1.20
2018-04-24T16:57:56.124Z,1.30
2018-04-24T17:00:31.146Z,1.20
2018-04-24T17:03:06.889Z,1.70
2018-04-24T17:05:41.369Z,1.30
2018-04-24T17:08:19.537Z,1.40
2018-04-24T17:10:55.260Z,1.20
2018-04-24T17:13:29.942Z,1.27
2018-04-24T17:16:11.405Z,1.40
2018-04-24T17:18:47.603Z,1.23
2018-04-24T17:21:21.904Z,1.13
2018-04-24T17:23:57.791Z,1.50
2018-04-24T17:26:31.215Z,1.30
2018-04-24T17:29:05.063Z,1.27
2018-04-24T17:31:39.797Z,1.20
2018-04-24T17:34:18.225Z,1.50
2018-04-24T17:36:55.330Z,1.27
2018-04-24T17:39:30.773Z,1.00
2018-04-24T17:44:45.101Z,1.60
2018-04-24T17:47:20.401Z,1.20
2018-04-24T17:49:54.564Z,1.20
2018-04-24T17:52:28.270Z,1.37
2018-04-24T17:55:04.273Z,1.37
2018-04-24T17:57:41.089Z,1.40
2018-04-24T18:00:15.014Z,1.30
2018-04-24T18:02:48.374Z,1.30
2018-04-24T18:05:22.968Z,1.50
2018-04-24T18:08:05.036Z,1.93
2018-04-24T18:10:40.139Z,1.47
2018-04-24T18:15:58.901Z,1.30
2018-04-24T18:18:32.770Z,1.33
2018-04-24T18:21:07.779Z,1.40
2018-04-24T18:23:41.503Z,1.40
2018-04-24T18:26:15.832Z,1.43
2018-04-24T18:28:56.357Z,1.20
2018-04-24T18:31:31.755Z,1.40
2018-04-24T18:34:05.618Z,1.57
2018-04-24T18:36:39.654Z,1.30
2018-04-24T18:39:13.556Z,1.50
2018-04-24T18:41:46.944Z,1.27
2018-04-24T18:44:21.507Z,1.30
2018-04-24T18:47:02.716Z,1.50
2018-04-24T18:52:45.080Z,1.30
2018-04-24T18:55:19.663Z,1.40
2018-04-24T18:57:57.623Z,1.40
2018-04-24T19:00:31.631Z,1.43
2018-04-24T19:03:05.748Z,1.60
2018-04-24T19:05:40.111Z,1.50
2018-04-24T19:08:13.508Z,1.40
2018-04-24T19:10:49.847Z,1.70
2018-04-24T19:13:23.363Z,1.40
2018-04-24T19:15:57.765Z,1.47
2018-04-24T19:18:36.096Z,1.80
2018-04-24T19:21:09.929Z,1.67
2018-04-24T19:23:43.580Z,1.67
2018-04-24T19:26:17.395Z,1.57
2018-04-24T19:28:50.964Z,1.90
2018-04-24T19:31:29.052Z,1.57
2018-04-24T19:34:03.313Z,1.70
2018-04-24T19:36:36.913Z,1.70
2018-04-24T19:39:14.989Z,1.70
2018-04-24T19:41:49.987Z,1.63
2018-04-24T19:46:58.737Z,1.90
2018-04-24T19:51:01.496Z,1.83
2018-04-24T19:53:35.304Z,1.80
2018-04-24T19:56:09.946Z,1.60
2018-04-24T19:58:43.322Z,1.80
2018-04-24T20:01:17.352Z,1.80
2018-04-24T20:03:50.674Z,1.93
2018-04-24T20:06:24.269Z,1.90
2018-04-24T20:09:00.996Z,2.03
2018-04-24T20:11:35.086Z,2.00
2018-04-24T20:14:08.791Z,2.03
2018-04-24T20:16:43.664Z,1.77
2018-04-24T20:19:17.652Z,1.70
2018-04-24T20:21:51.847Z,1.80
2018-04-24T20:24:26.681Z,1.63
2018-04-24T20:27:01.851Z,1.83
2018-04-24T20:29:35.558Z,2.07
2018-04-24T20:32:09.436Z,1.83
2018-04-24T20:34:43.050Z,2.00
2018-04-24T20:37:16.899Z,2.07
2018-04-24T20:39:50.304Z,2.03
2018-04-24T20:42:23.682Z,2.20
2018-04-24T20:44:57.559Z,2.10
2018-04-24T20:47:31.023Z,2.20
2018-04-24T20:50:04.622Z,2.00
2018-04-24T20:55:12.001Z,2.10
2018-04-24T20:57:45.540Z,2.00
2018-04-24T21:00:20.084Z,2.20
2018-04-24T21:02:54.550Z,2.10
2018-04-24T21:05:29.208Z,2.10
2018-04-24T21:08:03.067Z,1.93
2018-04-24T21:10:38.731Z,1.90
2018-04-24T21:13:14.724Z,2.40
2018-04-24T21:15:48.668Z,1.80
2018-04-24T21:18:23.570Z,2.10
2018-04-24T21:20:58.924Z,2.03
2018-04-24T21:23:36.110Z,2.20
2018-04-24T21:26:10.327Z,2.27
2018-04-24T21:28:44.549Z,2.10
2018-04-24T21:31:18.871Z,1.90
2018-04-24T21:33:52.614Z,1.80
2018-04-24T21:36:26.090Z,1.90
2018-04-24T21:38:59.154Z,2.20
2018-04-24T21:41:35.961Z,2.03
2018-04-24T21:44:09.367Z,1.80
2018-04-24T21:46:42.936Z,2.20
2018-04-24T21:49:17.737Z,2.00
2018-04-24T21:51:51.386Z,2.00
2018-04-24T21:54:25.455Z,1.93
2018-04-24T21:56:58.986Z,2.33
2018-04-24T21:59:32.415Z,2.00
2018-04-24T22:02:06.923Z,2.10
2018-04-24T22:07:13.323Z,2.20
2018-04-24T22:09:47.478Z,2.00
2018-04-24T22:12:22.525Z,2.13
2018-04-24T22:14:56.084Z,1.90
2018-04-24T22:17:30.047Z,2.10
2018-04-24T22:20:04.577Z,2.30
2018-04-24T22:22:38.177Z,2.13
2018-04-24T22:25:11.931Z,2.10
2018-04-24T22:27:45.887Z,2.40
2018-04-24T22:30:20.723Z,2.20
2018-04-24T22:32:54.348Z,2.20
2018-04-24T22:35:27.611Z,2.43
2018-04-24T22:38:01.128Z,2.20
2018-04-24T22:40:34.558Z,1.80
2018-04-24T22:43:08.503Z,2.03
2018-04-24T22:45:42.039Z,2.07
2018-04-24T22:48:15.583Z,2.10
2018-04-24T22:50:48.849Z,1.90
2018-04-24T22:53:22.477Z,2.47
2018-04-24T22:55:56.038Z,2.50
2018-04-24T22:58:29.637Z,2.47
2018-04-24T23:01:03.260Z,2.30
2018-04-24T23:03:36.706Z,2.60
2018-04-24T23:06:09.969Z,2.23
2018-04-24T23:08:43.825Z,2.30
2018-04-24T23:11:27.720Z,2.00
2018-04-24T23:14:18.897Z,2.10
2018-04-24T23:17:08.984Z,2.63
2018-04-24T23:20:00.445Z,2.40
2018-04-24T23:22:42.592Z,2.30
2018-04-24T23:25:16.261Z,2.07
2018-04-24T23:27:49.967Z,2.10
2018-04-24T23:30:23.250Z,1.90
2018-04-24T23:32:56.643Z,2.17
2018-04-24T23:35:30.047Z,2.10
2018-04-24T23:38:03.388Z,2.57
2018-04-24T23:40:37.543Z,2.03
2018-04-24T23:43:11.194Z,2.47
2018-04-24T23:45:44.558Z,2.23
2018-04-24T23:48:17.987Z,2.30
2018-04-24T23:50:53.517Z,2.40
2018-04-24T23:53:26.957Z,2.53
2018-04-24T23:56:00.349Z,2.20
2018-04-24T23:58:35.467Z,2.33
